Wasilla, Alaska
Current Conditions -  °F | °C
As of 7:16 PM on Tuesday 27 Jan 2015 (Local Time) from PAWS Reporting Station
Clear Clear  
Wind Chill: -24°   Ceiling: Unl
Heat Index: -18°   Visibility: 10mi
Dew Point: -22°   Wind: 5mph
Humidity: 72%   Direction: 250°WSW
Pressure: 30.02"   Gusts: NA
Location:  61.58°N, 149.45°W
Report Text: PAWS 280416Z AUTO 25004KT 10SM CLR M18/M22 A3002 RMK AO1
Loading
Personal Weather Stations






























Interactive Weather Map New forecast layout! Learn more

10-Day Weather Forecast

Advertisements
Track Severe Weather on mobile